createdAt,value
2023-07-23T00:01:23.739Z,99896.38
2023-07-23T00:03:50.233Z,99898.72
2023-07-23T00:06:18.992Z,99885.59
2023-07-23T00:08:50.092Z,99852.03
2023-07-23T00:11:16.729Z,99851.84
2023-07-23T00:13:43.715Z,99850.44
2023-07-23T00:16:12.821Z,99866.00
2023-07-23T00:18:39.232Z,99862.22
2023-07-23T00:21:08.067Z,99870.69
2023-07-23T00:23:34.444Z,99869.63
2023-07-23T00:26:00.825Z,99870.41
2023-07-23T00:28:27.315Z,99855.06
2023-07-23T00:30:53.726Z,99862.09
2023-07-23T00:33:20.366Z,99843.31
2023-07-23T00:35:46.860Z,99846.59
2023-07-23T00:38:13.274Z,99820.09
2023-07-23T00:40:39.641Z,99820.56
2023-07-23T00:43:06.167Z,99838.75
2023-07-23T00:45:32.815Z,99818.72
2023-07-23T00:48:00.415Z,99814.94
2023-07-23T00:50:27.216Z,99801.63
2023-07-23T00:52:53.800Z,99803.03
2023-07-23T00:55:20.410Z,99808.69
2023-07-23T00:57:46.952Z,99799.59
2023-07-23T01:00:13.793Z,99809.00
2023-07-23T01:02:40.310Z,99790.84
2023-07-23T01:05:08.030Z,99782.69
2023-07-23T01:07:35.211Z,99791.16
2023-07-23T01:10:02.957Z,99776.59
2023-07-23T01:12:29.977Z,99765.97
2023-07-23T01:14:59.568Z,99769.69
2023-07-23T01:17:29.255Z,99761.72
2023-07-23T01:20:03.376Z,99762.47
2023-07-23T01:22:29.858Z,99752.94
2023-07-23T01:24:59.609Z,99728.84
2023-07-23T01:27:35.804Z,99699.25
2023-07-23T01:30:02.266Z,99665.44
2023-07-23T01:32:31.515Z,99688.59
2023-07-23T01:35:04.858Z,99646.50
2023-07-23T01:37:31.273Z,99646.34
2023-07-23T01:39:57.958Z,99648.03
2023-07-23T01:42:24.858Z,99638.50
2023-07-23T01:44:54.050Z,99647.13
2023-07-23T01:47:20.545Z,99608.91
2023-07-23T01:49:47.173Z,99621.91
2023-07-23T01:52:13.698Z,99616.75
2023-07-23T01:54:40.106Z,99623.78
2023-07-23T01:57:06.575Z,99614.53
2023-07-23T01:59:33.259Z,99615.81
2023-07-23T02:01:59.807Z,99616.28
2023-07-23T02:04:28.626Z,99610.97
2023-07-23T02:06:55.271Z,99600.63
2023-07-23T02:09:21.774Z,99592.47
2023-07-23T02:11:48.354Z,99583.72
2023-07-23T02:14:14.917Z,99569.44
2023-07-23T02:19:30.308Z,99537.25
2023-07-23T02:22:02.125Z,99517.38
2023-07-23T02:24:32.564Z,99537.50
2023-07-23T02:27:02.135Z,99521.72
2023-07-23T02:29:30.925Z,99512.34
2023-07-23T02:32:00.896Z,99512.34
2023-07-23T02:34:30.465Z,99507.97
2023-07-23T02:37:00.016Z,99519.88
2023-07-23T02:39:28.866Z,99538.94
2023-07-23T02:41:55.403Z,99533.78
2023-07-23T02:44:21.863Z,99530.50
2023-07-23T02:49:40.935Z,99534.84
2023-07-23T02:52:07.458Z,99523.47
2023-07-23T02:54:34.599Z,99533.47
2023-07-23T02:57:01.179Z,99526.25
2023-07-23T02:59:30.555Z,99563.38
2023-07-23T03:02:03.293Z,99542.13
2023-07-23T03:04:29.725Z,99559.47
2023-07-23T03:07:05.036Z,99547.41
2023-07-23T03:09:31.580Z,99550.56
2023-07-23T03:12:01.398Z,99561.31
2023-07-23T03:14:36.689Z,99523.94
2023-07-23T03:17:03.561Z,99515.94
2023-07-23T03:19:40.945Z,99533.78
2023-07-23T03:22:07.663Z,99530.34
2023-07-23T03:24:35.144Z,99540.72
2023-07-23T03:27:04.317Z,99538.34
2023-07-23T03:29:30.801Z,99536.00
2023-07-23T03:32:00.292Z,99550.09
2023-07-23T03:34:29.437Z,99560.38
2023-07-23T03:36:55.894Z,99568.69
2023-07-23T03:39:22.338Z,99559.00
2023-07-23T03:41:49.102Z,99571.50
2023-07-23T03:44:15.571Z,99567.13
2023-07-23T03:47:00.767Z,99565.56
2023-07-23T03:49:27.443Z,99530.06
2023-07-23T04:40:18.297Z,99490.06
2023-07-23T04:46:36.880Z,99489.75
2023-07-23T04:49:15.230Z,99457.88
2023-07-23T04:51:44.758Z,99445.50
2023-07-23T04:54:14.532Z,99466.63
2023-07-23T04:56:40.971Z,99458.91
2023-07-23T04:59:46.583Z,99460.09
2023-07-23T05:02:14.470Z,99460.56
2023-07-23T05:08:50.502Z,99423.81
2023-07-23T05:11:27.428Z,99422.72
2023-07-23T05:24:16.048Z,99415.88
2023-07-23T05:33:36.806Z,99395.69
2023-07-23T06:00:20.551Z,99164.06
2023-07-23T06:03:07.672Z,99131.41
2023-07-23T06:05:36.967Z,99140.75
2023-07-23T06:08:06.245Z,99140.97
2023-07-23T06:13:33.033Z,99132.09
2023-07-23T06:16:13.020Z,99133.09
2023-07-23T06:18:44.806Z,99158.50
2023-07-23T06:24:04.900Z,99163.06
2023-07-23T06:26:31.403Z,99170.06
2023-07-23T06:32:27.262Z,99177.28
2023-07-23T06:35:05.829Z,99196.41
2023-07-23T06:37:34.973Z,99215.63
2023-07-23T06:40:01.575Z,99211.94
2023-07-23T06:42:36.751Z,99221.06
2023-07-23T06:45:07.787Z,99214.72
2023-07-23T06:50:11.494Z,99222.59
2023-07-23T06:50:35.222Z,99233.19
2023-07-23T06:53:02.510Z,99221.28
2023-07-23T06:55:40.121Z,99242.63
2023-07-23T06:58:15.343Z,99242.63
2023-07-23T07:00:44.023Z,99226.19
2023-07-23T07:03:13.701Z,99248.75
2023-07-23T07:05:41.780Z,99235.63
2023-07-23T07:21:31.709Z,99342.94
2023-07-23T07:23:58.420Z,99373.53
2023-07-23T07:26:26.918Z,99366.91
2023-07-23T07:28:56.000Z,99331.22
2023-07-23T07:31:37.730Z,99328.28
2023-07-23T07:34:10.464Z,99332.38
2023-07-23T07:36:36.997Z,99346.28
2023-07-23T07:39:17.538Z,99340.31
2023-07-23T07:42:13.867Z,99349.50
2023-07-23T07:44:43.334Z,99333.50
2023-07-23T07:47:20.476Z,99314.94
2023-07-23T07:49:47.816Z,99305.66
2023-07-23T07:52:19.762Z,99332.88
2023-07-23T07:55:04.774Z,99316.22
2023-07-23T07:57:54.448Z,99343.25
2023-07-23T08:00:21.335Z,99333.88
2023-07-23T08:05:52.420Z,99362.00
2023-07-23T08:08:23.489Z,99354.91
2023-07-23T08:14:43.263Z,99373.91
2023-07-23T08:17:13.270Z,99379.81
2023-07-23T08:19:44.430Z,99379.16
2023-07-23T08:22:13.746Z,99366.72
2023-07-23T08:24:46.324Z,99369.38
2023-07-23T08:27:17.583Z,99382.06
2023-07-23T08:29:50.796Z,99407.50
2023-07-23T08:32:23.812Z,99433.09
2023-07-23T08:34:56.103Z,99416.06
2023-07-23T08:37:26.015Z,99417.28
2023-07-23T08:39:53.444Z,99431.59
2023-07-23T08:42:57.328Z,99440.31
2023-07-23T08:46:05.944Z,99438.00
2023-07-23T08:48:42.887Z,99423.88
2023-07-23T08:51:10.870Z,99417.53
2023-07-23T08:53:40.514Z,99415.94
2023-07-23T08:56:11.757Z,99428.75
2023-07-23T08:58:43.034Z,99387.03
2023-07-23T09:01:10.284Z,99400.03
2023-07-23T09:03:37.119Z,99388.50
2023-07-23T09:06:12.972Z,99382.94
2023-07-23T09:11:34.628Z,99356.81
2023-07-23T09:14:09.084Z,99352.16
2023-07-23T09:16:38.735Z,99372.63
2023-07-23T09:19:08.283Z,99359.03
2023-07-23T09:21:37.810Z,99379.84
2023-07-23T09:24:04.434Z,99379.59
2023-07-23T09:26:36.345Z,99386.41
2023-07-23T09:29:08.756Z,99374.28
2023-07-23T09:31:41.857Z,99384.50
2023-07-23T09:34:08.840Z,99371.41
2023-07-23T09:36:42.738Z,99417.44
2023-07-23T09:39:09.480Z,99427.50
2023-07-23T09:41:44.614Z,99438.50
2023-07-23T09:44:25.368Z,99446.72
2023-07-23T09:46:58.809Z,99433.78
2023-07-23T09:49:33.558Z,99438.91
2023-07-23T09:52:07.326Z,99466.19
2023-07-23T09:54:48.851Z,99468.84
2023-07-23T09:57:30.982Z,99475.84
2023-07-23T09:59:58.935Z,99462.47
2023-07-23T10:07:53.834Z,99503.38
2023-07-23T10:10:20.982Z,99506.16
2023-07-23T10:12:47.740Z,99497.81
2023-07-23T10:15:14.399Z,99495.25
2023-07-23T10:17:47.700Z,99506.94
2023-07-23T10:20:19.626Z,99492.47
2023-07-23T10:22:49.035Z,99517.06
2023-07-23T10:25:36.871Z,99505.16
2023-07-23T10:28:09.663Z,99527.88
2023-07-23T10:30:37.188Z,99543.91
2023-07-23T10:33:13.570Z,99556.25
2023-07-23T10:35:55.551Z,99561.72
2023-07-23T10:38:23.061Z,99575.31
2023-07-23T10:40:49.730Z,99532.00
2023-07-23T10:43:16.584Z,99553.66
2023-07-23T10:45:48.771Z,99593.56
2023-07-23T10:48:18.376Z,99584.63
2023-07-23T10:53:59.372Z,99661.44
2023-07-23T10:56:26.950Z,99708.72
2023-07-23T10:59:09.746Z,99710.72
2023-07-23T11:01:44.801Z,99681.28
2023-07-23T11:04:16.407Z,99733.22
2023-07-23T11:06:58.197Z,99747.47
2023-07-23T11:09:25.774Z,99782.28
2023-07-23T11:11:56.764Z,99766.13
2023-07-23T11:14:27.918Z,99790.56
2023-07-23T11:17:12.224Z,99774.50
2023-07-23T11:19:38.657Z,99764.22
2023-07-23T11:22:05.904Z,99783.84
2023-07-23T11:24:36.037Z,99746.50
2023-07-23T11:27:05.672Z,99742.13
2023-07-23T11:29:35.180Z,99728.88
2023-07-23T11:32:08.119Z,99711.34
2023-07-23T11:34:34.686Z,99694.97
2023-07-23T11:37:08.650Z,99720.84
2023-07-23T11:39:35.098Z,99725.66
2023-07-23T11:42:04.148Z,99724.09
2023-07-23T11:44:34.683Z,99717.06
2023-07-23T11:47:03.423Z,99716.84
2023-07-23T11:49:30.165Z,99695.22
2023-07-23T11:51:59.103Z,99676.03
2023-07-23T11:54:25.492Z,99684.63
2023-07-23T11:56:53.281Z,99701.53
2023-07-23T11:59:22.427Z,99688.56
2023-07-23T12:01:49.090Z,99727.16
2023-07-23T12:04:15.644Z,99743.16
2023-07-23T12:07:09.319Z,99776.75
2023-07-23T12:09:35.943Z,99784.56
2023-07-23T12:12:05.826Z,99793.75
2023-07-23T12:14:36.734Z,99831.41
2023-07-23T12:17:06.072Z,99879.94
2023-07-23T12:19:33.518Z,99915.94
2023-07-23T12:22:13.583Z,99918.94
2023-07-23T12:24:40.568Z,99934.44
2023-07-23T12:27:07.130Z,99983.25
2023-07-23T12:29:36.154Z,100007.31
2023-07-23T12:32:09.661Z,100017.91
2023-07-23T12:34:36.521Z,100034.00
2023-07-23T12:37:09.212Z,100007.72
2023-07-23T12:39:39.235Z,100021.09
2023-07-23T12:42:09.279Z,100007.88
2023-07-23T12:44:36.036Z,99996.84
2023-07-23T12:47:10.264Z,100005.06
2023-07-23T12:52:41.767Z,100018.72
2023-07-23T12:55:24.677Z,100044.88
2023-07-23T12:58:18.573Z,100051.72
2023-07-23T13:00:45.162Z,100085.72
2023-07-23T13:03:34.983Z,100052.19
2023-07-23T13:06:15.570Z,100034.25
2023-07-23T13:08:45.047Z,100057.63
2023-07-23T13:11:22.647Z,100027.81
2023-07-23T13:13:51.766Z,100033.06
2023-07-23T13:19:53.056Z,100039.38
2023-07-23T13:22:28.544Z,100059.91
2023-07-23T13:25:20.435Z,100046.97
2023-07-23T13:28:22.361Z,100059.53
2023-07-23T13:36:39.680Z,100053.88
2023-07-23T13:39:07.389Z,100027.28
2023-07-23T13:41:36.505Z,99994.81
2023-07-23T13:47:00.373Z,100012.13
2023-07-23T13:52:15.544Z,100016.78
2023-07-23T13:55:24.812Z,100015.03
2023-07-23T14:01:39.000Z,100007.66
2023-07-23T14:04:25.093Z,100039.19
2023-07-23T14:09:48.148Z,100237.63
2023-07-23T14:15:16.979Z,100233.84
2023-07-23T14:17:54.148Z,100263.44
2023-07-23T14:20:21.119Z,100255.44
2023-07-23T14:22:47.552Z,100259.75
2023-07-23T14:25:19.045Z,100264.28
2023-07-23T14:28:18.773Z,100248.19
2023-07-23T14:31:06.861Z,100254.00
2023-07-23T14:36:13.629Z,100265.31
2023-07-23T14:41:38.211Z,100254.13
2023-07-23T14:47:19.750Z,100272.88
2023-07-23T14:49:56.443Z,100260.41
2023-07-23T14:52:37.172Z,100272.41
2023-07-23T14:55:17.354Z,100264.75
2023-07-23T14:57:55.938Z,100274.47
2023-07-23T15:00:44.728Z,100271.44
2023-07-23T15:03:36.475Z,100275.88
2023-07-23T15:06:06.068Z,100280.53
2023-07-23T15:08:59.178Z,100306.75
2023-07-23T15:11:32.696Z,100270.41
2023-07-23T15:14:27.748Z,100266.25
2023-07-23T15:16:57.497Z,100260.84
2023-07-23T15:19:25.674Z,100267.34
2023-07-23T15:22:08.328Z,100254.84
2023-07-23T15:27:44.669Z,100256.00
2023-07-23T15:30:19.799Z,100269.13
2023-07-23T15:32:46.382Z,100249.94
2023-07-23T15:35:12.881Z,100255.44
2023-07-23T15:37:46.471Z,100252.59
2023-07-23T15:42:57.745Z,100253.63
2023-07-23T15:45:25.748Z,100249.66
2023-07-23T15:51:30.734Z,100276.75
2023-07-23T15:54:02.076Z,100247.69
2023-07-23T16:03:21.168Z,100249.75
2023-07-23T16:05:50.446Z,100258.31
2023-07-23T16:08:18.089Z,100286.75
2023-07-23T16:10:46.235Z,100292.69
2023-07-23T16:13:27.101Z,100278.97
2023-07-23T16:15:56.666Z,100291.63
2023-07-23T16:18:28.296Z,100276.06
2023-07-23T16:20:54.928Z,100291.56
2023-07-23T16:23:21.323Z,100310.78
2023-07-23T16:26:06.778Z,100282.03
2023-07-23T16:28:35.733Z,100271.34
2023-07-23T16:31:02.377Z,100289.00
2023-07-23T16:33:29.223Z,100279.28
2023-07-23T16:36:17.133Z,100277.06
2023-07-23T16:38:47.459Z,100293.81
2023-07-23T16:41:22.984Z,100295.13
2023-07-23T16:43:51.972Z,100274.66
2023-07-23T16:46:18.578Z,100286.91
2023-07-23T16:48:49.559Z,100291.03
2023-07-23T16:51:20.245Z,100269.78
2023-07-23T16:54:08.307Z,100273.81
2023-07-23T16:56:37.791Z,100267.88
2023-07-23T16:59:11.848Z,100256.50
2023-07-23T17:01:38.347Z,100265.94
2023-07-23T17:04:07.484Z,100261.66
2023-07-23T17:06:38.394Z,100282.31
2023-07-23T17:09:13.537Z,100272.50
2023-07-23T17:11:39.945Z,100263.41
2023-07-23T17:14:10.854Z,100266.91
2023-07-23T17:16:40.499Z,100245.94
2023-07-23T17:19:08.210Z,100269.41
2023-07-23T17:21:42.576Z,100237.94
2023-07-23T17:24:08.996Z,100258.41
2023-07-23T17:26:39.238Z,100251.59
2023-07-23T17:29:08.617Z,100248.91
2023-07-23T17:31:55.868Z,100233.53
2023-07-23T17:34:22.254Z,100248.66
2023-07-23T17:37:13.140Z,100253.53
2023-07-23T17:39:39.514Z,100243.97
2023-07-23T17:42:08.812Z,100233.91
2023-07-23T17:44:38.016Z,100229.75
2023-07-23T17:47:07.816Z,100233.41
2023-07-23T17:49:36.574Z,100226.03
2023-07-23T17:52:03.191Z,100232.56
2023-07-23T17:54:32.666Z,100240.19
2023-07-23T17:57:07.439Z,100229.06
2023-07-23T17:59:39.341Z,100211.31
2023-07-23T18:02:16.713Z,100217.75
2023-07-23T18:04:43.164Z,100236.63
2023-07-23T18:07:09.644Z,100219.88
2023-07-23T18:09:40.211Z,100223.59
2023-07-23T18:12:11.746Z,100236.25
2023-07-23T18:14:38.214Z,100207.78
2023-07-23T18:17:10.465Z,100216.44
2023-07-23T18:19:48.513Z,100226.25
2023-07-23T18:22:14.957Z,100216.97
2023-07-23T18:24:48.202Z,100224.69
2023-07-23T18:27:16.983Z,100224.50
2023-07-23T18:30:06.961Z,100204.97
2023-07-23T18:33:56.796Z,100218.06
2023-07-23T18:35:27.181Z,100208.91
2023-07-23T18:37:53.629Z,100221.44
2023-07-23T18:40:53.254Z,100235.53
2023-07-23T18:43:18.265Z,100210.22
2023-07-23T18:45:44.758Z,100203.63
2023-07-23T18:48:13.953Z,100238.50
2023-07-23T18:50:44.536Z,100211.31
2023-07-23T18:53:13.394Z,100224.22
2023-07-23T18:58:47.582Z,100215.75
2023-07-23T19:01:14.059Z,100235.75
2023-07-23T19:03:40.574Z,100220.00
2023-07-23T19:06:11.149Z,100199.78
2023-07-23T19:08:42.462Z,100201.53
2023-07-23T19:11:08.976Z,100158.47
2023-07-23T19:13:38.413Z,100039.66
2023-07-23T19:16:09.835Z,100040.00
2023-07-23T19:18:36.907Z,99977.06
2023-07-23T19:21:03.852Z,99965.69
2023-07-23T19:23:30.257Z,99920.31
2023-07-23T19:25:59.339Z,99767.84
2023-07-23T19:28:25.799Z,99755.91
2023-07-23T19:30:57.834Z,99726.56
2023-07-23T19:33:25.603Z,99720.81
2023-07-23T19:35:53.654Z,99672.13
2023-07-23T19:38:23.740Z,99638.25
2023-07-23T19:40:50.424Z,99614.53
2023-07-23T19:43:23.050Z,99609.56
2023-07-23T19:45:59.675Z,99586.72
2023-07-23T19:48:26.235Z,99546.72
2023-07-23T19:50:52.646Z,99535.22
2023-07-23T19:53:19.712Z,99505.16
2023-07-23T19:55:49.070Z,99479.94
2023-07-23T19:58:16.371Z,99472.75
2023-07-23T20:00:49.760Z,99456.09
2023-07-23T20:03:20.266Z,99453.06
2023-07-23T20:09:06.114Z,99421.91
2023-07-23T20:11:39.947Z,99420.81
2023-07-23T20:14:09.233Z,99416.84
2023-07-23T20:16:38.255Z,99395.66
2023-07-23T20:19:04.736Z,99404.56
2023-07-23T20:21:43.115Z,99414.34
2023-07-23T20:24:17.400Z,99414.50
2023-07-23T20:26:56.357Z,99414.44
2023-07-23T20:29:23.125Z,99412.81
2023-07-23T20:31:56.701Z,99407.22
2023-07-23T20:34:28.640Z,99379.72
2023-07-23T20:36:58.389Z,99400.16
2023-07-23T20:39:25.485Z,99401.38
2023-07-23T20:41:54.851Z,99402.84
2023-07-23T20:44:21.256Z,99379.38
2023-07-23T20:47:18.008Z,99377.25
2023-07-23T20:49:34.775Z,99394.53
2023-07-23T20:52:04.702Z,99402.63
2023-07-23T20:54:31.121Z,99384.72
2023-07-23T20:56:57.897Z,99386.56
2023-07-23T20:59:27.612Z,99408.06
2023-07-23T21:01:54.503Z,99386.41
2023-07-23T21:04:21.070Z,99385.13
2023-07-23T21:06:47.497Z,99385.34
2023-07-23T21:09:17.057Z,99387.31
2023-07-23T21:11:43.485Z,99392.69
2023-07-23T21:14:13.126Z,99395.88
2023-07-23T21:16:39.564Z,99394.81
2023-07-23T21:19:08.586Z,99389.59
2023-07-23T21:21:46.577Z,99374.78
2023-07-23T21:24:30.622Z,99392.91
2023-07-23T21:27:17.351Z,99389.25
2023-07-23T21:29:45.429Z,99382.69
2023-07-23T21:32:16.743Z,99378.19
2023-07-23T21:34:43.155Z,99386.06
2023-07-23T21:37:36.430Z,99394.53
2023-07-23T21:40:02.995Z,99391.59
2023-07-23T21:42:34.837Z,99382.41
2023-07-23T21:45:01.291Z,99375.06
2023-07-23T21:50:31.398Z,99379.13
2023-07-23T21:53:03.494Z,99364.19
2023-07-23T21:55:29.928Z,99375.13
2023-07-23T21:57:56.360Z,99356.56
2023-07-23T22:00:23.004Z,99369.50
2023-07-23T22:02:49.571Z,99374.41
2023-07-23T22:05:21.906Z,99348.16
2023-07-23T22:07:53.255Z,99347.88
2023-07-23T22:10:20.096Z,99338.19
2023-07-23T22:12:46.592Z,99350.13
2023-07-23T22:15:13.161Z,99341.31
2023-07-23T22:17:39.614Z,99366.78
2023-07-23T22:20:09.515Z,99368.56
2023-07-23T22:22:38.472Z,99352.69
2023-07-23T22:25:07.668Z,99344.66
2023-07-23T22:27:34.106Z,99341.47
2023-07-23T22:30:06.036Z,99343.03
2023-07-23T22:32:38.387Z,99338.47
2023-07-23T22:35:08.009Z,99312.22
2023-07-23T22:37:34.516Z,99307.06
2023-07-23T22:40:03.914Z,99335.28
2023-07-23T22:42:30.367Z,99321.97
2023-07-23T22:45:01.946Z,99325.69
2023-07-23T22:49:55.957Z,99306.50
2023-07-23T22:52:28.926Z,99308.03
2023-07-23T22:54:55.484Z,99296.84
2023-07-23T22:57:34.481Z,99292.34
2023-07-23T23:00:11.194Z,99329.63
2023-07-23T23:02:44.062Z,99322.50
2023-07-23T23:05:16.846Z,99331.66
2023-07-23T23:07:43.402Z,99349.97
2023-07-23T23:10:14.935Z,99323.97
2023-07-23T23:12:51.836Z,99342.88
2023-07-23T23:15:18.272Z,99315.09
2023-07-23T23:17:50.571Z,99330.47
2023-07-23T23:20:19.880Z,99307.13
2023-07-23T23:22:48.965Z,99316.38
2023-07-23T23:25:18.476Z,99339.88
2023-07-23T23:28:08.762Z,99331.81
2023-07-23T23:33:55.239Z,99359.47
2023-07-23T23:36:32.355Z,99356.97
2023-07-23T23:39:02.638Z,99343.91
2023-07-23T23:41:38.035Z,99345.50
2023-07-23T23:44:07.247Z,99346.44
2023-07-23T23:49:41.764Z,99336.06
2023-07-23T23:52:23.047Z,99331.59
2023-07-23T23:55:09.970Z,99334.44
2023-07-23T23:58:00.217Z,99331.59
